sensor_id;sensor_type;location;lat;lon;timestamp;temperature;humidity
5041;DHT22;2539;52.568;13.364;2023-12-20T00:00:06;7.30;99.90
5041;DHT22;2539;52.568;13.364;2023-12-20T00:02:32;7.30;99.90
5041;DHT22;2539;52.568;13.364;2023-12-20T00:04:59;7.30;99.90
5041;DHT22;2539;52.568;13.364;2023-12-20T00:07:25;7.30;99.90
5041;DHT22;2539;52.568;13.364;2023-12-20T00:09:51;7.30;99.90
5041;DHT22;2539;52.568;13.364;2023-12-20T00:12:17;7.30;99.90
5041;DHT22;2539;52.568;13.364;2023-12-20T00:14:43;7.40;99.90
5041;DHT22;2539;52.568;13.364;2023-12-20T00:17:10;7.30;99.90
5041;DHT22;2539;52.568;13.364;2023-12-20T00:19:36;7.30;99.90
5041;DHT22;2539;52.568;13.364;2023-12-20T00:22:02;7.30;99.90
5041;DHT22;2539;52.568;13.364;2023-12-20T00:24:29;7.20;99.90
5041;DHT22;2539;52.568;13.364;2023-12-20T00:26:55;7.20;99.90
5041;DHT22;2539;52.568;13.364;2023-12-20T00:29:21;7.20;99.90
5041;DHT22;2539;52.568;13.364;2023-12-20T00:31:47;7.20;99.90
5041;DHT22;2539;52.568;13.364;2023-12-20T00:34:14;7.20;99.90
5041;DHT22;2539;52.568;13.364;2023-12-20T00:36:40;7.20;99.90
5041;DHT22;2539;52.568;13.364;2023-12-20T00:39:06;7.20;99.90
5041;DHT22;2539;52.568;13.364;2023-12-20T00:41:33;7.20;99.90
5041;DHT22;2539;52.568;13.364;2023-12-20T00:43:59;7.20;99.90
5041;DHT22;2539;52.568;13.364;2023-12-20T00:46:25;7.20;99.90
5041;DHT22;2539;52.568;13.364;2023-12-20T00:48:51;7.20;99.90
5041;DHT22;2539;52.568;13.364;2023-12-20T00:51:18;7.30;99.90
5041;DHT22;2539;52.568;13.364;2023-12-20T00:53:44;7.30;99.90
5041;DHT22;2539;52.568;13.364;2023-12-20T00:56:10;7.30;99.90
5041;DHT22;2539;52.568;13.364;2023-12-20T00:58:36;7.30;99.90
5041;DHT22;2539;52.568;13.364;2023-12-20T01:01:03;7.20;99.90
5041;DHT22;2539;52.568;13.364;2023-12-20T01:03:29;7.20;99.90
5041;DHT22;2539;52.568;13.364;2023-12-20T01:05:58;7.20;99.90
5041;DHT22;2539;52.568;13.364;2023-12-20T01:08:27;7.20;99.90
5041;DHT22;2539;52.568;13.364;2023-12-20T01:10:57;7.20;99.90
5041;DHT22;2539;52.568;13.364;2023-12-20T01:13:24;7.20;99.90
5041;DHT22;2539;52.568;13.364;2023-12-20T01:15:50;7.20;99.90
5041;DHT22;2539;52.568;13.364;2023-12-20T01:18:15;7.20;99.90
5041;DHT22;2539;52.568;13.364;2023-12-20T01:20:46;7.20;99.90
5041;DHT22;2539;52.568;13.364;2023-12-20T01:23:12;7.20;99.90
5041;DHT22;2539;52.568;13.364;2023-12-20T01:25:47;7.20;99.90
5041;DHT22;2539;52.568;13.364;2023-12-20T01:28:14;7.20;99.90
5041;DHT22;2539;52.568;13.364;2023-12-20T01:30:40;7.20;99.90
5041;DHT22;2539;52.568;13.364;2023-12-20T01:33:08;7.10;99.90
5041;DHT22;2539;52.568;13.364;2023-12-20T01:35:35;7.10;99.90
5041;DHT22;2539;52.568;13.364;2023-12-20T01:38:01;7.10;99.90
5041;DHT22;2539;52.568;13.364;2023-12-20T01:40:27;7.10;99.90
5041;DHT22;2539;52.568;13.364;2023-12-20T01:43:00;7.10;99.90
5041;DHT22;2539;52.568;13.364;2023-12-20T01:45:27;7.10;99.90
5041;DHT22;2539;52.568;13.364;2023-12-20T01:47:57;7.10;99.90
5041;DHT22;2539;52.568;13.364;2023-12-20T01:50:25;7.10;99.90
5041;DHT22;2539;52.568;13.364;2023-12-20T01:52:52;7.10;99.90
5041;DHT22;2539;52.568;13.364;2023-12-20T01:55:22;7.10;99.90
5041;DHT22;2539;52.568;13.364;2023-12-20T01:57:48;7.10;99.90
5041;DHT22;2539;52.568;13.364;2023-12-20T02:00:15;7.10;99.90
5041;DHT22;2539;52.568;13.364;2023-12-20T02:02:40;7.00;99.90
5041;DHT22;2539;52.568;13.364;2023-12-20T02:05:07;7.00;99.90
5041;DHT22;2539;52.568;13.364;2023-12-20T02:07:32;7.00;99.90
5041;DHT22;2539;52.568;13.364;2023-12-20T02:10:01;7.00;99.90
5041;DHT22;2539;52.568;13.364;2023-12-20T02:12:28;7.10;99.90
5041;DHT22;2539;52.568;13.364;2023-12-20T02:14:54;7.00;99.90
5041;DHT22;2539;52.568;13.364;2023-12-20T02:17:20;7.10;99.90
5041;DHT22;2539;52.568;13.364;2023-12-20T02:19:47;7.00;99.90
5041;DHT22;2539;52.568;13.364;2023-12-20T02:22:14;6.90;99.90
5041;DHT22;2539;52.568;13.364;2023-12-20T02:24:40;6.90;99.90
5041;DHT22;2539;52.568;13.364;2023-12-20T02:27:07;6.90;99.90
5041;DHT22;2539;52.568;13.364;2023-12-20T02:29:34;6.90;99.90
5041;DHT22;2539;52.568;13.364;2023-12-20T02:32:01;6.80;99.90
5041;DHT22;2539;52.568;13.364;2023-12-20T02:34:27;6.80;99.90
5041;DHT22;2539;52.568;13.364;2023-12-20T02:36:54;6.90;99.90
5041;DHT22;2539;52.568;13.364;2023-12-20T02:39:21;6.80;99.90
5041;DHT22;2539;52.568;13.364;2023-12-20T02:41:48;6.80;99.90
5041;DHT22;2539;52.568;13.364;2023-12-20T02:44:14;6.80;99.90
5041;DHT22;2539;52.568;13.364;2023-12-20T02:46:40;6.90;99.90
5041;DHT22;2539;52.568;13.364;2023-12-20T02:49:07;6.80;99.90
5041;DHT22;2539;52.568;13.364;2023-12-20T02:51:33;6.80;99.90
5041;DHT22;2539;52.568;13.364;2023-12-20T02:53:59;6.90;99.90
5041;DHT22;2539;52.568;13.364;2023-12-20T02:56:26;6.80;99.90
5041;DHT22;2539;52.568;13.364;2023-12-20T02:58:52;6.80;99.90
5041;DHT22;2539;52.568;13.364;2023-12-20T03:01:18;6.80;99.90
5041;DHT22;2539;52.568;13.364;2023-12-20T03:03:44;6.90;99.90
5041;DHT22;2539;52.568;13.364;2023-12-20T03:06:10;6.80;99.90
5041;DHT22;2539;52.568;13.364;2023-12-20T03:08:37;6.90;99.90
5041;DHT22;2539;52.568;13.364;2023-12-20T03:11:04;6.80;99.90
5041;DHT22;2539;52.568;13.364;2023-12-20T03:13:30;6.80;99.90
5041;DHT22;2539;52.568;13.364;2023-12-20T03:15:57;6.80;99.90
5041;DHT22;2539;52.568;13.364;2023-12-20T03:18:23;6.80;99.90
5041;DHT22;2539;52.568;13.364;2023-12-20T03:20:49;6.70;99.90
5041;DHT22;2539;52.568;13.364;2023-12-20T03:23:16;6.70;99.90
5041;DHT22;2539;52.568;13.364;2023-12-20T03:25:43;6.60;99.90
5041;DHT22;2539;52.568;13.364;2023-12-20T03:28:09;6.60;99.90
5041;DHT22;2539;52.568;13.364;2023-12-20T03:30:35;6.60;99.90
5041;DHT22;2539;52.568;13.364;2023-12-20T03:33:01;6.60;99.90
5041;DHT22;2539;52.568;13.364;2023-12-20T03:35:33;6.60;99.90
5041;DHT22;2539;52.568;13.364;2023-12-20T03:38:00;6.60;99.90
5041;DHT22;2539;52.568;13.364;2023-12-20T03:40:26;6.60;99.90
5041;DHT22;2539;52.568;13.364;2023-12-20T03:42:52;6.60;99.90
5041;DHT22;2539;52.568;13.364;2023-12-20T03:45:19;6.50;99.90
5041;DHT22;2539;52.568;13.364;2023-12-20T03:47:45;6.60;99.90
5041;DHT22;2539;52.568;13.364;2023-12-20T03:50:11;6.50;99.90
5041;DHT22;2539;52.568;13.364;2023-12-20T03:52:37;6.50;99.90
5041;DHT22;2539;52.568;13.364;2023-12-20T03:55:04;6.50;99.90
5041;DHT22;2539;52.568;13.364;2023-12-20T03:57:30;6.50;99.90
5041;DHT22;2539;52.568;13.364;2023-12-20T03:59:56;6.50;99.90
5041;DHT22;2539;52.568;13.364;2023-12-20T04:02:22;6.50;99.90
5041;DHT22;2539;52.568;13.364;2023-12-20T04:04:49;6.50;99.90
5041;DHT22;2539;52.568;13.364;2023-12-20T04:07:15;6.50;99.90
5041;DHT22;2539;52.568;13.364;2023-12-20T04:09:41;6.50;99.90
5041;DHT22;2539;52.568;13.364;2023-12-20T04:12:07;6.50;99.90
5041;DHT22;2539;52.568;13.364;2023-12-20T04:14:34;6.50;99.90
5041;DHT22;2539;52.568;13.364;2023-12-20T04:17:00;6.40;99.90
5041;DHT22;2539;52.568;13.364;2023-12-20T04:19:26;6.40;99.90
5041;DHT22;2539;52.568;13.364;2023-12-20T04:21:52;6.40;99.90
5041;DHT22;2539;52.568;13.364;2023-12-20T04:24:18;6.40;99.90
5041;DHT22;2539;52.568;13.364;2023-12-20T04:26:45;6.40;99.90
5041;DHT22;2539;52.568;13.364;2023-12-20T04:29:11;6.30;99.90
5041;DHT22;2539;52.568;13.364;2023-12-20T04:31:37;6.30;99.90
5041;DHT22;2539;52.568;13.364;2023-12-20T04:34:03;6.20;99.90
5041;DHT22;2539;52.568;13.364;2023-12-20T04:36:29;6.10;99.90
5041;DHT22;2539;52.568;13.364;2023-12-20T04:38:56;6.10;99.90
5041;DHT22;2539;52.568;13.364;2023-12-20T04:41:22;6.00;99.90
5041;DHT22;2539;52.568;13.364;2023-12-20T04:43:48;6.00;99.90
5041;DHT22;2539;52.568;13.364;2023-12-20T04:46:14;5.90;99.90
5041;DHT22;2539;52.568;13.364;2023-12-20T04:48:40;5.90;99.90
5041;DHT22;2539;52.568;13.364;2023-12-20T04:51:07;5.80;99.90
5041;DHT22;2539;52.568;13.364;2023-12-20T04:53:33;5.80;99.90
5041;DHT22;2539;52.568;13.364;2023-12-20T04:55:59;5.70;99.90
5041;DHT22;2539;52.568;13.364;2023-12-20T04:58:25;5.60;99.90
5041;DHT22;2539;52.568;13.364;2023-12-20T05:00:52;5.70;99.90
5041;DHT22;2539;52.568;13.364;2023-12-20T05:03:18;5.70;99.90
5041;DHT22;2539;52.568;13.364;2023-12-20T05:05:44;5.80;99.90
5041;DHT22;2539;52.568;13.364;2023-12-20T05:08:10;5.80;99.90
5041;DHT22;2539;52.568;13.364;2023-12-20T05:10:37;5.90;99.90
5041;DHT22;2539;52.568;13.364;2023-12-20T05:13:03;5.90;99.90
5041;DHT22;2539;52.568;13.364;2023-12-20T05:15:29;5.90;99.90
5041;DHT22;2539;52.568;13.364;2023-12-20T05:17:56;5.90;99.90
5041;DHT22;2539;52.568;13.364;2023-12-20T05:20:22;5.70;99.90
5041;DHT22;2539;52.568;13.364;2023-12-20T05:22:49;5.70;99.90
5041;DHT22;2539;52.568;13.364;2023-12-20T05:25:15;5.60;99.90
5041;DHT22;2539;52.568;13.364;2023-12-20T05:27:41;5.50;99.90
5041;DHT22;2539;52.568;13.364;2023-12-20T05:30:08;5.40;99.90
5041;DHT22;2539;52.568;13.364;2023-12-20T05:32:34;5.30;99.90
5041;DHT22;2539;52.568;13.364;2023-12-20T05:35:00;5.30;99.90
5041;DHT22;2539;52.568;13.364;2023-12-20T05:37:27;5.30;99.90
5041;DHT22;2539;52.568;13.364;2023-12-20T05:39:53;5.30;99.90
5041;DHT22;2539;52.568;13.364;2023-12-20T05:42:19;5.30;99.90
5041;DHT22;2539;52.568;13.364;2023-12-20T05:44:45;5.20;99.90
5041;DHT22;2539;52.568;13.364;2023-12-20T05:47:12;5.20;99.90
5041;DHT22;2539;52.568;13.364;2023-12-20T05:49:38;5.20;99.90
5041;DHT22;2539;52.568;13.364;2023-12-20T05:52:04;5.10;99.90
5041;DHT22;2539;52.568;13.364;2023-12-20T05:54:31;5.20;99.90
5041;DHT22;2539;52.568;13.364;2023-12-20T05:56:57;5.10;99.90
5041;DHT22;2539;52.568;13.364;2023-12-20T05:59:23;5.10;99.90
5041;DHT22;2539;52.568;13.364;2023-12-20T06:01:50;5.20;99.90
5041;DHT22;2539;52.568;13.364;2023-12-20T06:04:16;5.20;99.90
5041;DHT22;2539;52.568;13.364;2023-12-20T06:06:43;5.30;99.90
5041;DHT22;2539;52.568;13.364;2023-12-20T06:09:09;5.40;99.90
5041;DHT22;2539;52.568;13.364;2023-12-20T06:11:36;5.40;99.90
5041;DHT22;2539;52.568;13.364;2023-12-20T06:14:02;5.40;99.90
5041;DHT22;2539;52.568;13.364;2023-12-20T06:16:28;5.40;99.90
5041;DHT22;2539;52.568;13.364;2023-12-20T06:18:54;5.40;99.90
5041;DHT22;2539;52.568;13.364;2023-12-20T06:21:21;5.30;99.90
5041;DHT22;2539;52.568;13.364;2023-12-20T06:23:47;5.30;99.90
5041;DHT22;2539;52.568;13.364;2023-12-20T06:26:13;5.20;99.90
5041;DHT22;2539;52.568;13.364;2023-12-20T06:28:40;5.20;99.90
5041;DHT22;2539;52.568;13.364;2023-12-20T06:31:06;5.30;99.90
5041;DHT22;2539;52.568;13.364;2023-12-20T06:33:32;5.40;99.90
5041;DHT22;2539;52.568;13.364;2023-12-20T06:35:58;5.50;99.90
5041;DHT22;2539;52.568;13.364;2023-12-20T06:38:25;5.50;99.90
5041;DHT22;2539;52.568;13.364;2023-12-20T06:40:51;5.50;99.90
5041;DHT22;2539;52.568;13.364;2023-12-20T06:43:17;5.50;99.90
5041;DHT22;2539;52.568;13.364;2023-12-20T06:45:43;5.50;99.90
5041;DHT22;2539;52.568;13.364;2023-12-20T06:48:10;5.50;99.90
5041;DHT22;2539;52.568;13.364;2023-12-20T06:50:38;5.40;99.90
5041;DHT22;2539;52.568;13.364;2023-12-20T06:53:06;5.50;99.90
5041;DHT22;2539;52.568;13.364;2023-12-20T06:55:35;5.50;99.90
5041;DHT22;2539;52.568;13.364;2023-12-20T06:58:02;5.40;99.90
5041;DHT22;2539;52.568;13.364;2023-12-20T07:00:28;5.50;99.90
5041;DHT22;2539;52.568;13.364;2023-12-20T07:02:55;5.50;99.90
5041;DHT22;2539;52.568;13.364;2023-12-20T07:05:21;5.50;99.90
5041;DHT22;2539;52.568;13.364;2023-12-20T07:07:47;5.60;99.90
5041;DHT22;2539;52.568;13.364;2023-12-20T07:10:14;5.60;99.90
5041;DHT22;2539;52.568;13.364;2023-12-20T07:12:40;5.60;99.90
5041;DHT22;2539;52.568;13.364;2023-12-20T07:15:07;5.60;99.90
5041;DHT22;2539;52.568;13.364;2023-12-20T07:17:34;5.70;99.90
5041;DHT22;2539;52.568;13.364;2023-12-20T07:20:01;5.70;99.90
5041;DHT22;2539;52.568;13.364;2023-12-20T07:22:30;5.80;99.90
5041;DHT22;2539;52.568;13.364;2023-12-20T07:25:00;5.80;99.90
5041;DHT22;2539;52.568;13.364;2023-12-20T07:27:26;5.80;99.90
5041;DHT22;2539;52.568;13.364;2023-12-20T07:29:53;5.80;99.90
5041;DHT22;2539;52.568;13.364;2023-12-20T07:32:19;5.90;99.90
5041;DHT22;2539;52.568;13.364;2023-12-20T07:34:45;5.90;99.90
5041;DHT22;2539;52.568;13.364;2023-12-20T07:37:11;5.90;99.90
5041;DHT22;2539;52.568;13.364;2023-12-20T07:39:39;5.90;99.90
5041;DHT22;2539;52.568;13.364;2023-12-20T07:42:07;5.90;99.90
5041;DHT22;2539;52.568;13.364;2023-12-20T07:44:34;5.90;99.90
5041;DHT22;2539;52.568;13.364;2023-12-20T07:47:01;5.90;99.90
5041;DHT22;2539;52.568;13.364;2023-12-20T07:49:27;5.90;99.90
5041;DHT22;2539;52.568;13.364;2023-12-20T07:51:52;5.90;99.90
5041;DHT22;2539;52.568;13.364;2023-12-20T07:54:18;5.90;99.90
5041;DHT22;2539;52.568;13.364;2023-12-20T07:56:46;6.00;99.90
5041;DHT22;2539;52.568;13.364;2023-12-20T07:59:12;6.00;99.90
5041;DHT22;2539;52.568;13.364;2023-12-20T08:04:10;6.10;99.90
5041;DHT22;2539;52.568;13.364;2023-12-20T08:06:36;6.10;99.90
5041;DHT22;2539;52.568;13.364;2023-12-20T08:09:03;6.10;99.90
5041;DHT22;2539;52.568;13.364;2023-12-20T08:11:30;6.10;99.90
5041;DHT22;2539;52.568;13.364;2023-12-20T08:13:56;6.10;99.90
5041;DHT22;2539;52.568;13.364;2023-12-20T08:16:22;6.10;99.90
5041;DHT22;2539;52.568;13.364;2023-12-20T08:18:50;6.10;99.90
5041;DHT22;2539;52.568;13.364;2023-12-20T08:21:16;6.10;99.90
5041;DHT22;2539;52.568;13.364;2023-12-20T08:23:42;6.10;99.90
5041;DHT22;2539;52.568;13.364;2023-12-20T08:26:08;6.10;99.90
5041;DHT22;2539;52.568;13.364;2023-12-20T08:28:36;6.10;99.90
5041;DHT22;2539;52.568;13.364;2023-12-20T08:31:03;6.20;99.90
5041;DHT22;2539;52.568;13.364;2023-12-20T08:33:29;6.20;99.90
5041;DHT22;2539;52.568;13.364;2023-12-20T08:35:55;6.20;99.90
5041;DHT22;2539;52.568;13.364;2023-12-20T08:38:21;6.20;99.90
5041;DHT22;2539;52.568;13.364;2023-12-20T08:40:48;6.20;99.90
5041;DHT22;2539;52.568;13.364;2023-12-20T08:43:14;6.20;99.90
5041;DHT22;2539;52.568;13.364;2023-12-20T08:45:41;6.30;99.90
5041;DHT22;2539;52.568;13.364;2023-12-20T08:48:07;6.50;99.90
5041;DHT22;2539;52.568;13.364;2023-12-20T08:50:33;6.60;99.90
5041;DHT22;2539;52.568;13.364;2023-12-20T08:52:59;6.60;99.90
5041;DHT22;2539;52.568;13.364;2023-12-20T08:55:26;6.60;99.90
5041;DHT22;2539;52.568;13.364;2023-12-20T08:57:54;6.60;99.90
5041;DHT22;2539;52.568;13.364;2023-12-20T09:00:20;6.70;99.90
5041;DHT22;2539;52.568;13.364;2023-12-20T09:02:50;6.60;99.90
5041;DHT22;2539;52.568;13.364;2023-12-20T09:05:16;6.60;99.90
5041;DHT22;2539;52.568;13.364;2023-12-20T09:07:42;6.60;99.90
5041;DHT22;2539;52.568;13.364;2023-12-20T09:10:09;6.70;99.90
5041;DHT22;2539;52.568;13.364;2023-12-20T09:12:35;6.80;99.90
5041;DHT22;2539;52.568;13.364;2023-12-20T09:15:04;6.90;99.90
5041;DHT22;2539;52.568;13.364;2023-12-20T09:17:30;7.00;99.90
5041;DHT22;2539;52.568;13.364;2023-12-20T09:19:57;7.00;99.90
5041;DHT22;2539;52.568;13.364;2023-12-20T09:22:23;7.00;99.90
5041;DHT22;2539;52.568;13.364;2023-12-20T09:24:49;7.00;99.90
5041;DHT22;2539;52.568;13.364;2023-12-20T09:27:15;7.00;99.90
5041;DHT22;2539;52.568;13.364;2023-12-20T09:29:42;7.00;99.90
5041;DHT22;2539;52.568;13.364;2023-12-20T09:32:08;7.00;99.90
5041;DHT22;2539;52.568;13.364;2023-12-20T09:34:35;7.00;99.90
5041;DHT22;2539;52.568;13.364;2023-12-20T09:37:03;6.90;99.90
5041;DHT22;2539;52.568;13.364;2023-12-20T09:39:30;6.90;99.90
5041;DHT22;2539;52.568;13.364;2023-12-20T09:42:05;6.90;99.90
5041;DHT22;2539;52.568;13.364;2023-12-20T09:44:33;6.90;99.90
5041;DHT22;2539;52.568;13.364;2023-12-20T09:47:03;6.90;99.90
5041;DHT22;2539;52.568;13.364;2023-12-20T09:49:29;6.90;99.90
5041;DHT22;2539;52.568;13.364;2023-12-20T09:51:56;6.90;99.90
5041;DHT22;2539;52.568;13.364;2023-12-20T09:54:23;6.90;99.90
5041;DHT22;2539;52.568;13.364;2023-12-20T09:56:50;6.80;99.90
5041;DHT22;2539;52.568;13.364;2023-12-20T09:59:16;6.90;99.90
5041;DHT22;2539;52.568;13.364;2023-12-20T10:01:43;6.90;99.90
5041;DHT22;2539;52.568;13.364;2023-12-20T10:04:10;6.80;99.90
5041;DHT22;2539;52.568;13.364;2023-12-20T10:06:42;6.90;99.90
5041;DHT22;2539;52.568;13.364;2023-12-20T10:09:09;6.90;99.90
5041;DHT22;2539;52.568;13.364;2023-12-20T10:11:37;6.90;99.90
5041;DHT22;2539;52.568;13.364;2023-12-20T10:14:04;6.90;99.90
5041;DHT22;2539;52.568;13.364;2023-12-20T10:16:30;6.90;99.90
5041;DHT22;2539;52.568;13.364;2023-12-20T10:18:57;7.00;99.90
5041;DHT22;2539;52.568;13.364;2023-12-20T10:21:24;6.90;99.90
5041;DHT22;2539;52.568;13.364;2023-12-20T10:23:54;7.00;99.90
5041;DHT22;2539;52.568;13.364;2023-12-20T10:26:21;7.00;99.90
5041;DHT22;2539;52.568;13.364;2023-12-20T10:28:55;7.00;99.90
5041;DHT22;2539;52.568;13.364;2023-12-20T10:31:34;7.00;99.90
5041;DHT22;2539;52.568;13.364;2023-12-20T10:34:02;7.00;99.90
5041;DHT22;2539;52.568;13.364;2023-12-20T10:36:31;7.00;99.90
5041;DHT22;2539;52.568;13.364;2023-12-20T10:38:58;7.10;99.90
5041;DHT22;2539;52.568;13.364;2023-12-20T10:41:26;7.00;99.90
5041;DHT22;2539;52.568;13.364;2023-12-20T10:44:01;7.10;99.90
5041;DHT22;2539;52.568;13.364;2023-12-20T10:46:29;7.30;99.90
5041;DHT22;2539;52.568;13.364;2023-12-20T10:48:56;7.30;99.90
5041;DHT22;2539;52.568;13.364;2023-12-20T10:51:22;7.40;99.90
5041;DHT22;2539;52.568;13.364;2023-12-20T10:53:48;7.40;99.90
5041;DHT22;2539;52.568;13.364;2023-12-20T10:56:17;7.40;99.90
5041;DHT22;2539;52.568;13.364;2023-12-20T10:58:45;7.40;99.90
5041;DHT22;2539;52.568;13.364;2023-12-20T11:01:13;7.30;99.90
5041;DHT22;2539;52.568;13.364;2023-12-20T11:03:44;7.20;99.90
5041;DHT22;2539;52.568;13.364;2023-12-20T11:11:33;7.20;99.90
5041;DHT22;2539;52.568;13.364;2023-12-20T11:14:05;7.20;99.90
5041;DHT22;2539;52.568;13.364;2023-12-20T11:16:32;7.30;99.90
5041;DHT22;2539;52.568;13.364;2023-12-20T11:19:02;7.30;99.90
5041;DHT22;2539;52.568;13.364;2023-12-20T11:21:31;7.30;99.90
5041;DHT22;2539;52.568;13.364;2023-12-20T11:23:56;7.20;99.90
5041;DHT22;2539;52.568;13.364;2023-12-20T11:26:29;7.10;99.90
5041;DHT22;2539;52.568;13.364;2023-12-20T11:29:32;7.10;99.90
5041;DHT22;2539;52.568;13.364;2023-12-20T11:32:00;7.10;99.90
5041;DHT22;2539;52.568;13.364;2023-12-20T11:34:28;7.10;99.90
5041;DHT22;2539;52.568;13.364;2023-12-20T11:36:59;7.10;99.90
5041;DHT22;2539;52.568;13.364;2023-12-20T11:39:26;7.10;99.90
5041;DHT22;2539;52.568;13.364;2023-12-20T11:41:57;7.10;99.90
5041;DHT22;2539;52.568;13.364;2023-12-20T11:44:25;7.10;99.90
5041;DHT22;2539;52.568;13.364;2023-12-20T11:46:50;7.10;99.90
5041;DHT22;2539;52.568;13.364;2023-12-20T11:49:16;7.10;99.90
5041;DHT22;2539;52.568;13.364;2023-12-20T11:51:42;7.20;99.90
5041;DHT22;2539;52.568;13.364;2023-12-20T11:54:10;7.20;99.90
5041;DHT22;2539;52.568;13.364;2023-12-20T11:56:37;7.30;99.90
5041;DHT22;2539;52.568;13.364;2023-12-20T11:59:03;7.30;99.90
5041;DHT22;2539;52.568;13.364;2023-12-20T12:01:31;7.40;99.90
5041;DHT22;2539;52.568;13.364;2023-12-20T12:04:04;7.40;99.90
5041;DHT22;2539;52.568;13.364;2023-12-20T12:06:32;7.60;99.90
5041;DHT22;2539;52.568;13.364;2023-12-20T12:08:58;7.70;99.90
5041;DHT22;2539;52.568;13.364;2023-12-20T12:11:24;7.60;99.90
5041;DHT22;2539;52.568;13.364;2023-12-20T12:13:51;7.60;99.90
5041;DHT22;2539;52.568;13.364;2023-12-20T12:16:20;7.40;99.90
5041;DHT22;2539;52.568;13.364;2023-12-20T12:18:55;7.30;99.90
5041;DHT22;2539;52.568;13.364;2023-12-20T12:21:22;7.30;99.90
5041;DHT22;2539;52.568;13.364;2023-12-20T12:23:48;7.30;99.90
5041;DHT22;2539;52.568;13.364;2023-12-20T12:26:15;7.30;99.90
5041;DHT22;2539;52.568;13.364;2023-12-20T12:28:42;7.20;99.90
5041;DHT22;2539;52.568;13.364;2023-12-20T12:31:12;7.10;99.90
5041;DHT22;2539;52.568;13.364;2023-12-20T12:33:40;7.10;99.90
5041;DHT22;2539;52.568;13.364;2023-12-20T12:36:07;7.00;99.90
5041;DHT22;2539;52.568;13.364;2023-12-20T12:38:33;6.90;99.90
5041;DHT22;2539;52.568;13.364;2023-12-20T12:41:00;6.90;99.90
5041;DHT22;2539;52.568;13.364;2023-12-20T12:43:26;6.80;99.90
5041;DHT22;2539;52.568;13.364;2023-12-20T12:45:53;6.80;99.90
5041;DHT22;2539;52.568;13.364;2023-12-20T12:48:20;6.70;99.90
5041;DHT22;2539;52.568;13.364;2023-12-20T12:50:46;6.70;99.90
5041;DHT22;2539;52.568;13.364;2023-12-20T12:53:12;6.70;99.90
5041;DHT22;2539;52.568;13.364;2023-12-20T12:55:39;6.70;99.90
5041;DHT22;2539;52.568;13.364;2023-12-20T12:58:05;6.70;99.90
5041;DHT22;2539;52.568;13.364;2023-12-20T13:00:32;6.60;99.90
5041;DHT22;2539;52.568;13.364;2023-12-20T13:02:58;6.60;99.90
5041;DHT22;2539;52.568;13.364;2023-12-20T13:05:24;6.70;99.90
5041;DHT22;2539;52.568;13.364;2023-12-20T13:07:51;6.60;99.90
5041;DHT22;2539;52.568;13.364;2023-12-20T13:10:17;6.70;99.90
5041;DHT22;2539;52.568;13.364;2023-12-20T13:12:44;6.70;99.90
5041;DHT22;2539;52.568;13.364;2023-12-20T13:15:10;6.70;99.90
5041;DHT22;2539;52.568;13.364;2023-12-20T13:17:36;6.60;99.90
5041;DHT22;2539;52.568;13.364;2023-12-20T13:20:03;6.50;99.90
5041;DHT22;2539;52.568;13.364;2023-12-20T13:22:30;6.40;99.90
5041;DHT22;2539;52.568;13.364;2023-12-20T13:24:56;6.40;99.90
5041;DHT22;2539;52.568;13.364;2023-12-20T13:27:22;6.40;99.90
5041;DHT22;2539;52.568;13.364;2023-12-20T13:29:49;6.30;99.90
5041;DHT22;2539;52.568;13.364;2023-12-20T13:32:14;6.30;99.90
5041;DHT22;2539;52.568;13.364;2023-12-20T13:34:40;6.30;99.90
5041;DHT22;2539;52.568;13.364;2023-12-20T13:37:05;6.30;99.90
5041;DHT22;2539;52.568;13.364;2023-12-20T13:39:31;6.30;99.90
5041;DHT22;2539;52.568;13.364;2023-12-20T13:41:58;6.30;99.90
5041;DHT22;2539;52.568;13.364;2023-12-20T13:44:24;6.30;99.90
5041;DHT22;2539;52.568;13.364;2023-12-20T13:46:50;6.30;99.90
5041;DHT22;2539;52.568;13.364;2023-12-20T13:49:17;6.30;99.90
5041;DHT22;2539;52.568;13.364;2023-12-20T13:51:43;6.20;99.90
5041;DHT22;2539;52.568;13.364;2023-12-20T13:54:09;6.10;99.90
5041;DHT22;2539;52.568;13.364;2023-12-20T13:56:37;6.00;99.90
5041;DHT22;2539;52.568;13.364;2023-12-20T13:59:03;5.90;99.90
5041;DHT22;2539;52.568;13.364;2023-12-20T14:01:29;5.80;99.90
5041;DHT22;2539;52.568;13.364;2023-12-20T14:03:56;5.80;99.90
5041;DHT22;2539;52.568;13.364;2023-12-20T14:06:22;5.70;99.90
5041;DHT22;2539;52.568;13.364;2023-12-20T14:08:49;5.80;99.90
5041;DHT22;2539;52.568;13.364;2023-12-20T14:11:15;5.70;99.90
5041;DHT22;2539;52.568;13.364;2023-12-20T14:13:41;5.70;99.90
5041;DHT22;2539;52.568;13.364;2023-12-20T14:16:08;5.60;99.90
5041;DHT22;2539;52.568;13.364;2023-12-20T14:21:11;5.60;99.90
5041;DHT22;2539;52.568;13.364;2023-12-20T14:23:37;5.70;99.90
5041;DHT22;2539;52.568;13.364;2023-12-20T14:26:03;5.80;99.90
5041;DHT22;2539;52.568;13.364;2023-12-20T14:28:29;5.90;99.90
5041;DHT22;2539;52.568;13.364;2023-12-20T14:30:56;5.90;99.90
5041;DHT22;2539;52.568;13.364;2023-12-20T14:33:22;5.90;99.90
5041;DHT22;2539;52.568;13.364;2023-12-20T14:35:48;5.90;99.90
5041;DHT22;2539;52.568;13.364;2023-12-20T14:38:15;5.90;99.90
5041;DHT22;2539;52.568;13.364;2023-12-20T14:40:41;5.90;99.90
5041;DHT22;2539;52.568;13.364;2023-12-20T14:43:07;5.90;99.90
5041;DHT22;2539;52.568;13.364;2023-12-20T14:45:33;5.70;99.90
5041;DHT22;2539;52.568;13.364;2023-12-20T14:48:00;5.70;99.90
5041;DHT22;2539;52.568;13.364;2023-12-20T14:50:26;5.70;99.90
5041;DHT22;2539;52.568;13.364;2023-12-20T14:52:52;5.80;99.90
5041;DHT22;2539;52.568;13.364;2023-12-20T14:55:20;5.80;99.90
5041;DHT22;2539;52.568;13.364;2023-12-20T14:57:46;5.80;99.90
5041;DHT22;2539;52.568;13.364;2023-12-20T15:00:12;5.70;99.90
5041;DHT22;2539;52.568;13.364;2023-12-20T15:02:41;5.70;99.90
5041;DHT22;2539;52.568;13.364;2023-12-20T15:05:08;5.70;99.90
5041;DHT22;2539;52.568;13.364;2023-12-20T15:07:35;5.60;99.90
5041;DHT22;2539;52.568;13.364;2023-12-20T15:10:02;5.70;99.90
5041;DHT22;2539;52.568;13.364;2023-12-20T15:12:29;5.70;99.90
5041;DHT22;2539;52.568;13.364;2023-12-20T15:14:55;5.70;99.90
5041;DHT22;2539;52.568;13.364;2023-12-20T15:17:22;5.70;99.90
5041;DHT22;2539;52.568;13.364;2023-12-20T15:19:48;5.70;99.90
5041;DHT22;2539;52.568;13.364;2023-12-20T15:22:14;5.80;99.90
5041;DHT22;2539;52.568;13.364;2023-12-20T15:24:40;5.80;99.90
5041;DHT22;2539;52.568;13.364;2023-12-20T15:27:07;5.70;99.90
5041;DHT22;2539;52.568;13.364;2023-12-20T15:29:33;5.60;99.90
5041;DHT22;2539;52.568;13.364;2023-12-20T15:31:59;5.60;99.90
5041;DHT22;2539;52.568;13.364;2023-12-20T15:34:26;5.60;99.90
5041;DHT22;2539;52.568;13.364;2023-12-20T15:36:52;5.50;99.90
5041;DHT22;2539;52.568;13.364;2023-12-20T15:39:18;5.40;99.90
5041;DHT22;2539;52.568;13.364;2023-12-20T15:41:44;5.30;99.90
5041;DHT22;2539;52.568;13.364;2023-12-20T15:44:11;5.20;99.90
5041;DHT22;2539;52.568;13.364;2023-12-20T15:46:38;5.10;99.90
5041;DHT22;2539;52.568;13.364;2023-12-20T15:49:04;5.10;99.90
5041;DHT22;2539;52.568;13.364;2023-12-20T15:51:29;5.10;99.90
5041;DHT22;2539;52.568;13.364;2023-12-20T15:53:55;5.00;99.90
5041;DHT22;2539;52.568;13.364;2023-12-20T15:56:22;5.00;99.90
5041;DHT22;2539;52.568;13.364;2023-12-20T15:58:48;5.00;99.90
5041;DHT22;2539;52.568;13.364;2023-12-20T16:01:17;4.90;99.90
5041;DHT22;2539;52.568;13.364;2023-12-20T16:03:44;4.90;99.90
5041;DHT22;2539;52.568;13.364;2023-12-20T16:06:10;4.80;99.90
5041;DHT22;2539;52.568;13.364;2023-12-20T16:08:37;4.80;99.90